Terminal Aerodrome Forecast
Issued by NWS

Home | Current Version | Previous Version | Text Only | Print | Product List | Glossary On
Versions: 1 2 3 4 5 6 7 8 9 10 11 12 13 14 15 16 17
000
FTAK31 PANC 291126
TAFAHO
TAF
PAHO 291126Z 2912/3012 05009KT P6SM -RA OVC080
     FM292100 07010G18KT P6SM -RA OVC050
     FM300600 06007KT P6SM -RA OVC070=

USA.gov is the U.S. government's official web portal to all federal, state and local government web resources and services.